Time;durP1;ratioP1;P1;durP2;ratioP2;P2;SDS_P1;SDS_P2;PMS_P1;PMS_P2;Temp;Humidity;BMP_temperature;BMP_pressure;BME280_temperature;BME280_humidity;BME280_pressure;Samples;Min_cycle;Max_cycle;Signal;HPM_P1;HPM_P2
2022/04/27 00:00:16;;;;;;;11.60;6.17;;;;;;;;;;5089700;28;20263;-66
2022/04/27 00:02:41;;;;;;;9.70;5.73;;;;;;;;;;5085041;28;20176;-66
2022/04/27 00:05:08;;;;;;;9.67;5.80;;;;;;;;;;5080425;28;20195;-66
2022/04/27 00:07:33;;;;;;;11.47;6.30;;;;;;;;;;5086591;28;20242;-66
2022/04/27 00:09:59;;;;;;;9.73;5.90;;;;;;;;;;5088867;28;20539;-66
2022/04/27 00:12:25;;;;;;;11.33;6.40;;;;;;;;;;5086535;28;20535;-66
2022/04/27 00:14:50;;;;;;;11.60;6.27;;;;;;;;;;5083876;28;20251;-66
2022/04/27 00:17:16;;;;;;;15.87;6.63;;;;;;;;;;5088828;28;20259;-66
2022/04/27 00:19:41;;;;;;;11.30;6.37;;;;;;;;;;5088591;28;20476;-66
2022/04/27 00:22:06;;;;;;;12.30;7.13;;;;;;;;;;5086715;28;20196;-66
2022/04/27 00:24:32;;;;;;;13.43;6.67;;;;;;;;;;5081611;28;20865;-66
2022/04/27 00:26:57;;;;;;;9.87;6.67;;;;;;;;;;5087207;28;20184;-66
2022/04/27 00:29:22;;;;;;;11.07;7.20;;;;;;;;;;5089246;28;20196;-66
2022/04/27 00:31:47;;;;;;;12.13;6.77;;;;;;;;;;5086191;28;20480;-66
2022/04/27 00:34:13;;;;;;;11.60;6.63;;;;;;;;;;5085237;28;20636;-66
2022/04/27 00:36:38;;;;;;;11.73;7.20;;;;;;;;;;5083976;28;20195;-67
2022/04/27 00:39:05;;;;;;;12.97;7.27;;;;;;;;;;5086695;28;20491;-66
2022/04/27 00:41:30;;;;;;;11.67;7.00;;;;;;;;;;5089938;28;20211;-66
2022/04/27 00:43:56;;;;;;;10.67;7.03;;;;;;;;;;5082802;28;20487;-66
2022/04/27 00:46:21;;;;;;;11.30;6.67;;;;;;;;;;5088047;28;20230;-66
2022/04/27 00:48:47;;;;;;;11.63;6.93;;;;;;;;;;5087925;28;21021;-66
2022/04/27 00:51:22;;;;;;;10.30;7.07;;;;;;;;;;5088794;28;20184;-65
2022/04/27 00:53:48;;;;;;;12.87;6.90;;;;;;;;;;5085046;28;20176;-65
2022/04/27 00:56:17;;;;;;;12.73;7.80;;;;;;;;;;5088349;28;20574;-66
2022/04/27 00:58:42;;;;;;;11.67;6.90;;;;;;;;;;5082822;28;20188;-66
2022/04/27 01:01:08;;;;;;;11.83;7.30;;;;;;;;;;5084409;28;20180;-66
2022/04/27 01:03:37;;;;;;;14.77;6.97;;;;;;;;;;5078807;28;20192;-66
2022/04/27 01:06:04;;;;;;;14.33;6.93;;;;;;;;;;5076759;28;20699;-66
2022/04/27 01:08:29;;;;;;;12.43;7.27;;;;;;;;;;5082688;28;20203;-67
2022/04/27 01:10:56;;;;;;;12.57;7.97;;;;;;;;;;5071496;28;20200;-66
2022/04/27 01:13:22;;;;;;;11.73;7.80;;;;;;;;;;5080597;28;20184;-66
2022/04/27 01:15:47;;;;;;;12.90;7.60;;;;;;;;;;5077131;28;20400;-67
2022/04/27 01:18:12;;;;;;;13.57;7.13;;;;;;;;;;5089523;28;20176;-67
2022/04/27 01:20:44;;;;;;;12.40;7.80;;;;;;;;;;5085141;28;20599;-66
2022/04/27 01:23:09;;;;;;;15.53;7.37;;;;;;;;;;5075107;28;20189;-64
2022/04/27 01:25:46;;;;;;;13.33;7.83;;;;;;;;;;5085663;28;20220;-65
2022/04/27 01:28:11;;;;;;;14.70;7.63;;;;;;;;;;5087423;28;20200;-66
2022/04/27 01:30:37;;;;;;;12.87;7.77;;;;;;;;;;5082430;28;20320;-66
2022/04/27 01:33:10;;;;;;;17.17;8.27;;;;;;;;;;5082271;28;20249;-65
2022/04/27 01:35:36;;;;;;;14.10;8.53;;;;;;;;;;5088281;28;20172;-66
2022/04/27 01:38:02;;;;;;;16.13;8.03;;;;;;;;;;5074578;28;20180;-66
2022/04/27 01:40:27;;;;;;;14.33;8.50;;;;;;;;;;5077196;28;20331;-66
2022/04/27 01:42:52;;;;;;;15.33;7.90;;;;;;;;;;5084634;28;20199;-66
2022/04/27 01:45:18;;;;;;;15.33;8.63;;;;;;;;;;5087694;28;20604;-66
2022/04/27 01:47:43;;;;;;;15.23;8.73;;;;;;;;;;5086689;28;20204;-66
2022/04/27 01:50:08;;;;;;;15.30;9.10;;;;;;;;;;5073394;28;20183;-66
2022/04/27 01:55:19;;;;;;;17.80;8.93;;;;;;;;;;5087505;28;20223;-66
2022/04/27 01:57:45;;;;;;;15.43;9.47;;;;;;;;;;5087323;28;20212;-66
2022/04/27 02:00:11;;;;;;;13.80;8.67;;;;;;;;;;5081083;28;20208;-66
2022/04/27 02:02:36;;;;;;;16.07;9.47;;;;;;;;;;5084762;28;20187;-66
2022/04/27 02:05:02;;;;;;;15.17;8.97;;;;;;;;;;5085916;28;20184;-66
2022/04/27 02:07:28;;;;;;;15.03;9.17;;;;;;;;;;5079209;28;20288;-66
2022/04/27 02:09:53;;;;;;;14.57;8.97;;;;;;;;;;5086974;28;20189;-66
2022/04/27 02:12:19;;;;;;;16.83;9.70;;;;;;;;;;5086274;28;20202;-65
2022/04/27 02:14:44;;;;;;;20.60;9.37;;;;;;;;;;5082948;28;20183;-67
2022/04/27 02:17:09;;;;;;;16.70;8.87;;;;;;;;;;5087974;28;20592;-65
2022/04/27 02:19:35;;;;;;;20.23;9.80;;;;;;;;;;5081119;28;20729;-66
2022/04/27 02:22:00;;;;;;;12.37;8.70;;;;;;;;;;5086535;28;20264;-65
2022/04/27 02:24:26;;;;;;;15.27;9.63;;;;;;;;;;5079604;28;20287;-66
2022/04/27 02:26:52;;;;;;;20.47;9.53;;;;;;;;;;5069095;28;20172;-66
2022/04/27 02:29:18;;;;;;;16.83;8.90;;;;;;;;;;5074765;28;20234;-66
2022/04/27 02:31:43;;;;;;;13.93;8.83;;;;;;;;;;5083581;28;20615;-68
2022/04/27 02:34:10;;;;;;;18.97;8.70;;;;;;;;;;5081565;28;20663;-67
2022/04/27 02:36:35;;;;;;;18.23;8.97;;;;;;;;;;5086865;28;20249;-67
2022/04/27 02:39:01;;;;;;;23.20;10.30;;;;;;;;;;5084267;28;20192;-68
2022/04/27 02:41:26;;;;;;;16.50;10.30;;;;;;;;;;5085661;28;20274;-67
2022/04/27 02:43:52;;;;;;;13.77;8.50;;;;;;;;;;5083480;28;20176;-67
2022/04/27 02:46:17;;;;;;;17.83;9.30;;;;;;;;;;5080223;28;20188;-67
2022/04/27 02:51:48;;;;;;;17.50;9.77;;;;;;;;;;5082762;28;20168;-67
2022/04/27 02:54:11;;;;;;;23.43;9.47;;;;;;;;;;5084749;28;20241;-66
2022/04/27 02:56:37;;;;;;;16.07;9.33;;;;;;;;;;5085823;28;20185;-66
2022/04/27 02:59:02;;;;;;;16.57;9.17;;;;;;;;;;5083360;28;20245;-67
2022/04/27 03:01:27;;;;;;;22.87;9.67;;;;;;;;;;5085095;28;20191;-65
2022/04/27 03:03:53;;;;;;;23.30;10.80;;;;;;;;;;5074645;28;20180;-66
2022/04/27 03:06:18;;;;;;;20.70;9.83;;;;;;;;;;5084147;28;20270;-67
2022/04/27 03:08:43;;;;;;;17.30;10.00;;;;;;;;;;5081857;28;20179;-67
2022/04/27 03:11:09;;;;;;;20.10;9.97;;;;;;;;;;5089042;28;20220;-67
2022/04/27 03:13:34;;;;;;;20.60;10.03;;;;;;;;;;5079302;28;20638;-67
2022/04/27 03:15:59;;;;;;;19.20;10.37;;;;;;;;;;5087177;28;20236;-67
2022/04/27 03:18:25;;;;;;;18.13;9.83;;;;;;;;;;5090766;28;20196;-66
2022/04/27 03:20:50;;;;;;;24.03;10.17;;;;;;;;;;5082820;28;20184;-66
2022/04/27 03:23:18;;;;;;;21.20;10.67;;;;;;;;;;5083634;28;20192;-66
2022/04/27 03:25:44;;;;;;;18.53;10.30;;;;;;;;;;5079366;28;20517;-66
2022/04/27 03:28:10;;;;;;;16.30;9.90;;;;;;;;;;5089991;28;20181;-66
2022/04/27 03:30:35;;;;;;;21.40;10.27;;;;;;;;;;5090042;28;20693;-67
2022/04/27 03:33:01;;;;;;;17.30;9.13;;;;;;;;;;5089375;28;20678;-67
2022/04/27 03:35:27;;;;;;;16.33;9.57;;;;;;;;;;5090646;28;20183;-67
2022/04/27 03:37:52;;;;;;;21.33;10.20;;;;;;;;;;5087275;28;20562;-67
2022/04/27 03:40:21;;;;;;;17.70;10.63;;;;;;;;;;5085668;28;20184;-66
2022/04/27 03:42:47;;;;;;;18.23;10.70;;;;;;;;;;5080624;28;20183;-66
2022/04/27 03:45:12;;;;;;;19.83;9.57;;;;;;;;;;5086647;28;20184;-67
2022/04/27 03:47:38;;;;;;;20.07;10.13;;;;;;;;;;5085431;28;20574;-66
2022/04/27 03:50:04;;;;;;;17.50;10.40;;;;;;;;;;5085159;28;20183;-67
2022/04/27 03:52:30;;;;;;;18.93;9.90;;;;;;;;;;5085298;28;20191;-66
2022/04/27 03:55:00;;;;;;;17.90;10.30;;;;;;;;;;5079687;28;20184;-66
2022/04/27 03:57:25;;;;;;;22.57;10.60;;;;;;;;;;5082593;28;20230;-66
2022/04/27 03:59:51;;;;;;;19.33;10.10;;;;;;;;;;5078644;28;20203;-66
2022/04/27 04:02:16;;;;;;;19.03;11.20;;;;;;;;;;5085629;28;20472;-66
2022/04/27 04:04:41;;;;;;;20.60;10.77;;;;;;;;;;5083550;28;20184;-67
2022/04/27 04:07:07;;;;;;;20.20;10.53;;;;;;;;;;5087584;28;20649;-67
2022/04/27 04:09:32;;;;;;;21.70;10.70;;;;;;;;;;5086579;28;20219;-66
2022/04/27 04:11:57;;;;;;;23.87;10.97;;;;;;;;;;5084107;28;20202;-67
2022/04/27 04:14:23;;;;;;;19.53;10.93;;;;;;;;;;5082226;28;20188;-66
2022/04/27 04:16:48;;;;;;;21.73;10.60;;;;;;;;;;5078520;28;20187;-67
2022/04/27 04:19:13;;;;;;;18.43;10.40;;;;;;;;;;5089882;28;20192;-66
2022/04/27 04:21:39;;;;;;;20.53;9.97;;;;;;;;;;5076942;28;20690;-66
2022/04/27 04:24:05;;;;;;;21.50;11.30;;;;;;;;;;5082395;28;20173;-66
2022/04/27 04:29:14;;;;;;;26.03;11.37;;;;;;;;;;5089606;28;20663;-66
2022/04/27 04:31:39;;;;;;;20.60;10.97;;;;;;;;;;5074895;28;20462;-66
2022/04/27 04:34:05;;;;;;;24.03;11.97;;;;;;;;;;5078913;28;20191;-66
2022/04/27 04:36:30;;;;;;;20.30;11.57;;;;;;;;;;5088262;28;20187;-66
2022/04/27 04:38:57;;;;;;;19.07;11.67;;;;;;;;;;5085142;28;20202;-66
2022/04/27 04:41:22;;;;;;;21.93;12.33;;;;;;;;;;5087846;28;20267;-66
2022/04/27 04:43:48;;;;;;;23.10;11.67;;;;;;;;;;5080450;28;20272;-66
2022/04/27 04:46:13;;;;;;;18.93;10.97;;;;;;;;;;5074629;28;20185;-66
2022/04/27 04:48:38;;;;;;;20.60;11.50;;;;;;;;;;5087038;28;20184;-66
2022/04/27 04:51:04;;;;;;;22.50;11.10;;;;;;;;;;5087702;28;20172;-67
2022/04/27 04:53:30;;;;;;;21.40;11.43;;;;;;;;;;5085540;28;20241;-67
2022/04/27 04:55:56;;;;;;;21.57;11.40;;;;;;;;;;5086253;28;20206;-67
2022/04/27 04:58:21;;;;;;;22.53;11.63;;;;;;;;;;5087797;28;20491;-67
2022/04/27 05:00:48;;;;;;;22.37;11.93;;;;;;;;;;5085729;28;20188;-66
2022/04/27 05:03:14;;;;;;;19.50;10.63;;;;;;;;;;5085912;28;20628;-66
2022/04/27 05:05:40;;;;;;;24.27;12.03;;;;;;;;;;5085991;28;20233;-66
2022/04/27 05:08:07;;;;;;;24.20;11.43;;;;;;;;;;5084664;28;20212;-66
2022/04/27 05:10:33;;;;;;;24.03;12.93;;;;;;;;;;5082101;28;20230;-67
2022/04/27 05:12:58;;;;;;;22.53;11.73;;;;;;;;;;5079011;28;20189;-66
2022/04/27 05:15:24;;;;;;;20.53;11.43;;;;;;;;;;5078525;28;20191;-67
2022/04/27 05:17:49;;;;;;;21.77;11.53;;;;;;;;;;5086843;28;20571;-66
2022/04/27 05:20:14;;;;;;;24.40;13.33;;;;;;;;;;5076577;28;20198;-66
2022/04/27 05:22:40;;;;;;;25.20;12.83;;;;;;;;;;5081793;28;20572;-66
2022/04/27 05:25:07;;;;;;;25.53;12.63;;;;;;;;;;5085537;28;20703;-67
2022/04/27 05:27:32;;;;;;;22.73;12.33;;;;;;;;;;5086095;28;20675;-67
2022/04/27 05:32:43;;;;;;;26.47;13.30;;;;;;;;;;5078475;28;20206;-67
2022/04/27 05:35:09;;;;;;;22.57;13.13;;;;;;;;;;5086400;28;20205;-66
2022/04/27 05:37:35;;;;;;;24.17;13.30;;;;;;;;;;5085975;28;20191;-67
2022/04/27 05:40:00;;;;;;;29.27;15.83;;;;;;;;;;5085689;28;20516;-66
2022/04/27 05:42:26;;;;;;;32.50;15.77;;;;;;;;;;5085064;28;20183;-66
2022/04/27 05:44:51;;;;;;;29.33;16.70;;;;;;;;;;5084444;28;20593;-66
2022/04/27 05:47:16;;;;;;;31.57;17.43;;;;;;;;;;5086124;28;20196;-66
2022/04/27 05:49:42;;;;;;;30.47;16.77;;;;;;;;;;5085435;28;20183;-67
2022/04/27 05:52:07;;;;;;;29.63;16.27;;;;;;;;;;5083151;28;20280;-66
2022/04/27 05:54:32;;;;;;;41.03;17.47;;;;;;;;;;5083820;28;20532;-67
2022/04/27 05:56:58;;;;;;;31.33;17.97;;;;;;;;;;5080401;28;20203;-67
2022/04/27 05:59:23;;;;;;;30.73;17.83;;;;;;;;;;5079650;28;20202;-66
2022/04/27 06:01:48;;;;;;;30.60;17.03;;;;;;;;;;5084716;28;20208;-66
2022/04/27 06:04:14;;;;;;;36.67;17.93;;;;;;;;;;5085552;28;20241;-66
2022/04/27 06:06:39;;;;;;;33.77;17.80;;;;;;;;;;5085453;28;20220;-66
2022/04/27 06:09:04;;;;;;;31.10;16.43;;;;;;;;;;5086184;28;20191;-67
2022/04/27 06:11:30;;;;;;;27.27;15.63;;;;;;;;;;5086027;28;20195;-67
2022/04/27 06:13:55;;;;;;;22.77;15.37;;;;;;;;;;5083530;28;20266;-66
2022/04/27 06:16:23;;;;;;;28.97;16.20;;;;;;;;;;5084335;28;20546;-66
2022/04/27 06:18:48;;;;;;;28.20;15.57;;;;;;;;;;5084943;28;20199;-65
2022/04/27 06:21:14;;;;;;;26.60;14.20;;;;;;;;;;5086361;28;20184;-66
2022/04/27 06:23:40;;;;;;;24.80;14.27;;;;;;;;;;5086469;28;20518;-66
2022/04/27 06:26:06;;;;;;;27.37;14.33;;;;;;;;;;5081256;28;20591;-66
2022/04/27 06:28:34;;;;;;;20.60;13.57;;;;;;;;;;5082995;28;20696;-66
2022/04/27 06:31:00;;;;;;;18.43;12.50;;;;;;;;;;5072779;28;20773;-67
2022/04/27 06:33:26;;;;;;;20.60;11.53;;;;;;;;;;5087119;28;20225;-67
2022/04/27 06:35:52;;;;;;;21.10;12.13;;;;;;;;;;5075712;28;20598;-66
2022/04/27 06:38:18;;;;;;;19.03;11.43;;;;;;;;;;5086058;28;20226;-67
2022/04/27 06:40:44;;;;;;;22.07;11.90;;;;;;;;;;5083572;28;20500;-67
2022/04/27 06:43:09;;;;;;;21.07;11.43;;;;;;;;;;5082177;28;20469;-66
2022/04/27 06:45:36;;;;;;;16.80;10.33;;;;;;;;;;5086965;28;20248;-66
2022/04/27 06:48:05;;;;;;;19.80;11.50;;;;;;;;;;5083154;28;20620;-67
2022/04/27 06:50:30;;;;;;;20.53;10.67;;;;;;;;;;5085625;28;20187;-67
2022/04/27 06:52:59;;;;;;;16.40;10.87;;;;;;;;;;5084228;28;20191;-66
2022/04/27 06:55:26;;;;;;;22.30;10.70;;;;;;;;;;5085649;28;20648;-66
2022/04/27 06:57:52;;;;;;;17.07;8.53;;;;;;;;;;5082640;28;20184;-66
2022/04/27 07:00:17;;;;;;;16.33;8.03;;;;;;;;;;5086719;28;20177;-66
2022/04/27 07:02:42;;;;;;;13.33;7.07;;;;;;;;;;5080193;28;20610;-67
2022/04/27 07:05:12;;;;;;;12.33;7.27;;;;;;;;;;5083744;28;20183;-67
2022/04/27 07:07:37;;;;;;;15.73;6.90;;;;;;;;;;5085077;28;20296;-67
2022/04/27 07:10:03;;;;;;;11.17;5.53;;;;;;;;;;5082645;28;20240;-66
2022/04/27 07:12:28;;;;;;;12.35;7.30;;;;;;;;;;5082820;28;20712;-66
2022/04/27 07:14:54;;;;;;;12.05;6.35;;;;;;;;;;5085341;28;20263;-67
2022/04/27 07:17:19;;;;;;;11.77;6.53;;;;;;;;;;5085258;28;20261;-67
2022/04/27 07:19:45;;;;;;;14.05;6.22;;;;;;;;;;5086032;28;20541;-67
2022/04/27 07:22:11;;;;;;;11.25;6.35;;;;;;;;;;5086116;28;20185;-66
2022/04/27 07:24:37;;;;;;;11.60;6.05;;;;;;;;;;5082527;28;20180;-67
2022/04/27 07:27:03;;;;;;;15.85;5.90;;;;;;;;;;5082261;28;20187;-66
2022/04/27 07:29:29;;;;;;;11.27;6.85;;;;;;;;;;5086145;28;20172;-66
2022/04/27 07:31:54;;;;;;;11.68;5.03;;;;;;;;;;5084074;28;20196;-67
2022/04/27 07:34:19;;;;;;;7.68;4.60;;;;;;;;;;5081912;28;20260;-67
2022/04/27 07:36:45;;;;;;;11.10;5.40;;;;;;;;;;5083032;28;20649;-67
2022/04/27 07:39:10;;;;;;;9.10;5.30;;;;;;;;;;5077405;28;20215;-67
2022/04/27 07:41:36;;;;;;;10.63;4.87;;;;;;;;;;5083700;28;20188;-66
2022/04/27 07:44:02;;;;;;;5.10;3.00;;;;;;;;;;5087690;28;20219;-66
2022/04/27 07:46:28;;;;;;;7.17;3.70;;;;;;;;;;5084974;28;20188;-67
2022/04/27 07:48:54;;;;;;;8.70;3.22;;;;;;;;;;5087866;28;20196;-67
2022/04/27 07:51:19;;;;;;;6.18;3.05;;;;;;;;;;5084957;28;20204;-67
2022/04/27 07:53:44;;;;;;;4.15;2.00;;;;;;;;;;5087866;28;20216;-67
2022/04/27 07:56:10;;;;;;;2.22;1.23;;;;;;;;;;5088777;28;20191;-67
2022/04/27 07:58:36;;;;;;;3.05;1.27;;;;;;;;;;5089734;28;20196;-67
2022/04/27 08:01:02;;;;;;;3.60;1.60;;;;;;;;;;5088469;28;20263;-67
2022/04/27 08:03:27;;;;;;;7.20;1.98;;;;;;;;;;5087327;28;20313;-66
2022/04/27 08:05:52;;;;;;;5.68;1.67;;;;;;;;;;5087956;28;20272;-67
2022/04/27 08:08:18;;;;;;;3.50;1.58;;;;;;;;;;5085930;28;20312;-67
2022/04/27 08:10:43;;;;;;;6.85;1.88;;;;;;;;;;5085411;28;20267;-67
2022/04/27 08:13:09;;;;;;;4.93;1.75;;;;;;;;;;5084860;28;20180;-67
2022/04/27 08:15:34;;;;;;;2.85;1.10;;;;;;;;;;5088019;28;20554;-67
2022/04/27 08:18:04;;;;;;;2.45;0.98;;;;;;;;;;5083861;28;20214;-67
2022/04/27 08:23:20;;;;;;;2.53;1.33;;;;;;;;;;5085708;28;20244;-67
2022/04/27 08:25:46;;;;;;;6.05;1.33;;;;;;;;;;5086359;28;20655;-67
2022/04/27 08:28:12;;;;;;;2.58;1.50;;;;;;;;;;5081368;28;20180;-67
2022/04/27 08:30:40;;;;;;;5.20;2.00;;;;;;;;;;5086703;28;20196;-67
2022/04/27 08:33:07;;;;;;;6.20;1.40;;;;;;;;;;5085491;28;20184;-67
2022/04/27 08:35:33;;;;;;;4.45;1.40;;;;;;;;;;5088220;28;20192;-67
2022/04/27 08:38:02;;;;;;;2.05;1.70;;;;;;;;;;5086425;28;20728;-67
2022/04/27 08:40:28;;;;;;;6.18;1.70;;;;;;;;;;5087086;28;20192;-67
2022/04/27 08:42:54;;;;;;;4.60;1.48;;;;;;;;;;5087529;28;20278;-67
2022/04/27 08:45:20;;;;;;;4.45;1.83;;;;;;;;;;5088673;28;20240;-67
2022/04/27 08:47:47;;;;;;;2.97;2.03;;;;;;;;;;5086062;28;20580;-67
2022/04/27 08:50:14;;;;;;;5.05;1.67;;;;;;;;;;5087805;28;20631;-67
2022/04/27 08:52:41;;;;;;;4.22;1.20;;;;;;;;;;5085056;28;20180;-67
2022/04/27 08:55:08;;;;;;;2.70;1.50;;;;;;;;;;5084759;28;20188;-67
2022/04/27 08:57:34;;;;;;;2.50;1.40;;;;;;;;;;5083440;28;20181;-67
2022/04/27 08:59:59;;;;;;;2.33;1.40;;;;;;;;;;5085945;28;20226;-67
2022/04/27 09:02:26;;;;;;;4.18;1.48;;;;;;;;;;5084712;28;20206;-67
2022/04/27 09:05:18;;;;;;;4.55;1.50;;;;;;;;;;5085701;28;20275;-66
2022/04/27 09:07:50;;;;;;;6.45;1.50;;;;;;;;;;5082755;28;20465;-67
2022/04/27 09:10:21;;;;;;;4.25;1.40;;;;;;;;;;5083744;28;20585;-67
2022/04/27 09:12:51;;;;;;;5.53;1.75;;;;;;;;;;5085590;28;20176;-67
2022/04/27 09:15:20;;;;;;;3.42;1.40;;;;;;;;;;5086795;28;20261;-67
2022/04/27 09:20:48;;;;;;;3.65;1.50;;;;;;;;;;5083256;28;20777;-67
2022/04/27 09:23:21;;;;;;;3.05;1.67;;;;;;;;;;5081908;28;20192;-67
2022/04/27 09:25:47;;;;;;;2.33;1.45;;;;;;;;;;5082161;28;20214;-68
2022/04/27 09:28:12;;;;;;;3.13;1.30;;;;;;;;;;5083434;28;20583;-67
2022/04/27 09:30:38;;;;;;;1.80;1.33;;;;;;;;;;5078697;28;20231;-67
2022/04/27 09:33:03;;;;;;;5.10;1.63;;;;;;;;;;5080771;28;20596;-67
2022/04/27 09:35:29;;;;;;;5.60;1.70;;;;;;;;;;5080659;28;20273;-68
2022/04/27 09:37:55;;;;;;;5.00;1.42;;;;;;;;;;5080223;28;20209;-67
2022/04/27 09:40:20;;;;;;;2.25;1.50;;;;;;;;;;5079209;28;20222;-68
2022/04/27 09:42:46;;;;;;;2.00;1.30;;;;;;;;;;5083909;28;20367;-67
2022/04/27 09:45:18;;;;;;;4.68;1.25;;;;;;;;;;5083965;28;20202;-67
2022/04/27 09:48:00;;;;;;;2.47;1.40;;;;;;;;;;5081336;28;20188;-67
2022/04/27 09:50:26;;;;;;;4.32;1.65;;;;;;;;;;5084628;28;20212;-67
2022/04/27 09:52:51;;;;;;;2.47;1.38;;;;;;;;;;5078001;28;20253;-67
2022/04/27 09:55:17;;;;;;;3.08;1.50;;;;;;;;;;5082548;28;20251;-68
2022/04/27 09:57:42;;;;;;;2.58;1.40;;;;;;;;;;5081800;28;20182;-67
2022/04/27 10:00:12;;;;;;;3.78;1.42;;;;;;;;;;5081425;28;20192;-67
2022/04/27 10:02:43;;;;;;;3.17;1.95;;;;;;;;;;5078994;28;20183;-66
2022/04/27 10:05:08;;;;;;;3.88;1.98;;;;;;;;;;5081548;28;20186;-67
2022/04/27 10:07:35;;;;;;;10.77;1.70;;;;;;;;;;5080420;28;20581;-66
2022/04/27 10:10:04;;;;;;;4.05;1.60;;;;;;;;;;5082962;28;20180;-67
2022/04/27 10:12:35;;;;;;;3.15;1.92;;;;;;;;;;5079160;28;20191;-67
2022/04/27 10:15:00;;;;;;;3.40;1.80;;;;;;;;;;5083046;28;20194;-66
2022/04/27 10:17:27;;;;;;;5.03;1.88;;;;;;;;;;5083416;28;20564;-67
2022/04/27 10:19:52;;;;;;;2.95;1.80;;;;;;;;;;5084391;28;20634;-67
2022/04/27 10:22:32;;;;;;;4.13;1.88;;;;;;;;;;5084956;28;20275;-67
2022/04/27 10:25:04;;;;;;;5.72;2.03;;;;;;;;;;5085154;28;20192;-67
2022/04/27 10:27:33;;;;;;;4.15;1.60;;;;;;;;;;5069642;28;20330;-68
2022/04/27 10:30:04;;;;;;;4.00;1.88;;;;;;;;;;5077084;28;20181;-67
2022/04/27 10:32:33;;;;;;;3.45;2.13;;;;;;;;;;5075839;28;20195;-66
2022/04/27 10:35:19;;;;;;;9.80;2.13;;;;;;;;;;5084547;28;20215;-67
2022/04/27 10:37:57;;;;;;;6.15;1.92;;;;;;;;;;5078221;28;20173;-67
2022/04/27 10:40:31;;;;;;;3.15;1.67;;;;;;;;;;5083035;28;20241;-68
2022/04/27 10:43:03;;;;;;;3.83;1.70;;;;;;;;;;5074051;28;20579;-68
2022/04/27 10:45:29;;;;;;;3.85;1.67;;;;;;;;;;5085794;28;20187;-67
2022/04/27 10:47:54;;;;;;;5.65;1.95;;;;;;;;;;5068167;28;20203;-68
2022/04/27 10:50:23;;;;;;;4.00;1.63;;;;;;;;;;5086760;28;20192;-68
2022/04/27 10:52:52;;;;;;;4.43;1.50;;;;;;;;;;5083841;28;20312;-68
2022/04/27 10:55:35;;;;;;;3.13;1.70;;;;;;;;;;5079018;28;20208;-67
2022/04/27 10:58:31;;;;;;;2.13;1.38;;;;;;;;;;5072113;28;20195;-67
2022/04/27 11:01:02;;;;;;;3.10;1.52;;;;;;;;;;5081505;28;20222;-67
2022/04/27 11:03:28;;;;;;;3.90;1.80;;;;;;;;;;5086736;28;20180;-67
2022/04/27 11:05:58;;;;;;;2.78;1.52;;;;;;;;;;5081782;28;20222;-67
2022/04/27 11:08:39;;;;;;;5.60;1.70;;;;;;;;;;5079005;28;20185;-67
2022/04/27 11:11:08;;;;;;;4.13;1.42;;;;;;;;;;5087519;28;20191;-66
2022/04/27 11:13:35;;;;;;;3.05;1.60;;;;;;;;;;5079949;28;20207;-66
2022/04/27 11:16:11;;;;;;;4.70;1.88;;;;;;;;;;5084463;28;20622;-67
2022/04/27 11:18:56;;;;;;;4.15;1.80;;;;;;;;;;5077804;28;20210;-67
2022/04/27 11:21:26;;;;;;;7.13;1.85;;;;;;;;;;5091280;28;20275;-67
2022/04/27 11:23:51;;;;;;;6.30;2.28;;;;;;;;;;5088321;28;20211;-66
2022/04/27 11:26:17;;;;;;;2.50;1.55;;;;;;;;;;5086824;28;20687;-66
2022/04/27 11:28:44;;;;;;;5.25;2.03;;;;;;;;;;5082791;28;20184;-67
2022/04/27 11:31:11;;;;;;;2.42;1.70;;;;;;;;;;5089360;28;20223;-67
2022/04/27 11:33:40;;;;;;;3.95;1.83;;;;;;;;;;5091310;28;20219;-67
2022/04/27 11:36:06;;;;;;;3.78;1.77;;;;;;;;;;5083266;28;20184;-67
2022/04/27 11:38:36;;;;;;;5.72;1.80;;;;;;;;;;5090925;28;20203;-67
2022/04/27 11:41:02;;;;;;;2.90;1.85;;;;;;;;;;5089503;28;20188;-68
2022/04/27 11:43:29;;;;;;;5.60;1.90;;;;;;;;;;5089002;28;20215;-67
2022/04/27 11:45:58;;;;;;;8.07;2.10;;;;;;;;;;5089798;28;20223;-68
2022/04/27 11:48:28;;;;;;;8.75;2.00;;;;;;;;;;5088763;28;20483;-67
2022/04/27 11:51:00;;;;;;;3.67;2.03;;;;;;;;;;5089936;28;20180;-68
2022/04/27 11:53:26;;;;;;;2.40;2.13;;;;;;;;;;5088216;28;20195;-67
2022/04/27 11:55:52;;;;;;;3.38;1.75;;;;;;;;;;5083766;28;20258;-66
2022/04/27 11:58:22;;;;;;;6.03;2.20;;;;;;;;;;5088942;28;20311;-67
2022/04/27 12:00:49;;;;;;;5.00;2.03;;;;;;;;;;5090029;28;20858;-67
2022/04/27 12:03:15;;;;;;;8.98;2.20;;;;;;;;;;5088306;28;20184;-67
2022/04/27 12:05:40;;;;;;;4.53;1.77;;;;;;;;;;5090440;28;20199;-67
2022/04/27 12:08:09;;;;;;;4.32;2.05;;;;;;;;;;5089749;28;20176;-68
2022/04/27 12:10:45;;;;;;;6.15;2.10;;;;;;;;;;5087747;28;20180;-67
2022/04/27 12:13:12;;;;;;;5.18;2.10;;;;;;;;;;5086050;28;20224;-67
2022/04/27 12:15:39;;;;;;;3.25;1.63;;;;;;;;;;5084925;28;20172;-67
2022/04/27 12:18:05;;;;;;;3.63;1.90;;;;;;;;;;5087978;28;20275;-67
2022/04/27 12:20:40;;;;;;;6.07;2.20;;;;;;;;;;5086130;28;20267;-67
2022/04/27 12:23:10;;;;;;;3.70;2.30;;;;;;;;;;5085902;28;20271;-67
2022/04/27 12:25:52;;;;;;;4.43;2.10;;;;;;;;;;5086887;28;20603;-66
2022/04/27 12:28:18;;;;;;;5.65;2.30;;;;;;;;;;5085623;28;20570;-67
2022/04/27 12:30:55;;;;;;;7.90;2.15;;;;;;;;;;5083124;28;20221;-67
2022/04/27 12:33:23;;;;;;;2.88;1.90;;;;;;;;;;5085397;28;20216;-66
2022/04/27 12:38:54;;;;;;;6.40;2.00;;;;;;;;;;5087152;28;20645;-67
2022/04/27 12:41:43;;;;;;;7.93;1.88;;;;;;;;;;5087492;28;20274;-68
2022/04/27 12:44:10;;;;;;;4.75;2.25;;;;;;;;;;5083533;28;20477;-67
2022/04/27 12:46:39;;;;;;;4.28;2.22;;;;;;;;;;5086602;28;20176;-67
2022/04/27 12:49:07;;;;;;;4.65;2.13;;;;;;;;;;5087602;28;20293;-67
2022/04/27 12:51:35;;;;;;;7.65;2.50;;;;;;;;;;5086909;28;20190;-66
2022/04/27 12:54:02;;;;;;;4.53;2.08;;;;;;;;;;5085545;28;20195;-66
2022/04/27 12:56:32;;;;;;;4.45;2.13;;;;;;;;;;5086650;28;20255;-68
2022/04/27 12:59:16;;;;;;;4.57;2.40;;;;;;;;;;5085246;28;20200;-67
2022/04/27 13:01:41;;;;;;;3.72;2.05;;;;;;;;;;5088697;28;20879;-67
2022/04/27 13:04:07;;;;;;;5.47;1.98;;;;;;;;;;5088113;28;20272;-67
2022/04/27 13:06:32;;;;;;;5.22;2.30;;;;;;;;;;5086052;28;20726;-66
2022/04/27 13:11:57;;;;;;;6.10;2.28;;;;;;;;;;5084408;28;20276;-66
2022/04/27 13:14:23;;;;;;;3.05;1.77;;;;;;;;;;5086414;28;20183;-67
2022/04/27 13:16:48;;;;;;;3.00;2.03;;;;;;;;;;5087363;28;20612;-67
2022/04/27 13:19:14;;;;;;;4.28;2.22;;;;;;;;;;5085089;28;20198;-67
2022/04/27 13:21:39;;;;;;;5.45;2.20;;;;;;;;;;5080120;28;20191;-67
2022/04/27 13:24:05;;;;;;;7.15;2.13;;;;;;;;;;5082869;28;20184;-66
2022/04/27 13:26:30;;;;;;;4.15;1.90;;;;;;;;;;5086221;28;20207;-66
2022/04/27 13:28:55;;;;;;;6.43;3.03;;;;;;;;;;5087937;28;20577;-66
2022/04/27 13:31:21;;;;;;;3.25;2.33;;;;;;;;;;5083440;28;20207;-67
2022/04/27 13:33:47;;;;;;;4.65;2.13;;;;;;;;;;5079692;28;20184;-67
2022/04/27 13:36:12;;;;;;;6.13;2.88;;;;;;;;;;5081382;28;20203;-67
2022/04/27 13:38:37;;;;;;;5.53;2.45;;;;;;;;;;5087005;28;20216;-67
2022/04/27 13:41:03;;;;;;;6.03;2.40;;;;;;;;;;5082743;28;20195;-67
2022/04/27 13:43:28;;;;;;;5.82;2.72;;;;;;;;;;5084992;28;20302;-67
2022/04/27 13:45:54;;;;;;;7.47;2.53;;;;;;;;;;5080258;28;20179;-67
2022/04/27 13:48:19;;;;;;;4.32;2.30;;;;;;;;;;5081576;28;20200;-67
2022/04/27 13:50:44;;;;;;;4.78;2.72;;;;;;;;;;5083584;28;20179;-68
2022/04/27 13:53:10;;;;;;;4.70;2.55;;;;;;;;;;5085937;28;20176;-67
2022/04/27 13:55:35;;;;;;;7.97;2.75;;;;;;;;;;5083496;28;20172;-67
2022/04/27 13:58:02;;;;;;;6.18;2.80;;;;;;;;;;5085699;28;20537;-67
2022/04/27 14:00:27;;;;;;;7.18;2.70;;;;;;;;;;5082666;28;20192;-66
2022/04/27 14:02:53;;;;;;;4.85;2.70;;;;;;;;;;5084389;28;20244;-66
2022/04/27 14:05:19;;;;;;;5.63;2.53;;;;;;;;;;5085228;28;20754;-66
2022/04/27 14:07:45;;;;;;;7.88;3.00;;;;;;;;;;5084172;28;20236;-66
2022/04/27 14:10:14;;;;;;;5.00;2.78;;;;;;;;;;5059164;28;20204;-66
2022/04/27 14:15:28;;;;;;;5.97;2.85;;;;;;;;;;5060352;28;20574;-66
2022/04/27 14:18:14;;;;;;;4.45;2.83;;;;;;;;;;5064514;28;20261;-65
2022/04/27 14:20:45;;;;;;;6.80;3.03;;;;;;;;;;5065026;28;20303;-66
2022/04/27 14:23:13;;;;;;;3.38;2.33;;;;;;;;;;5063702;28;20184;-66
2022/04/27 14:25:40;;;;;;;4.00;2.97;;;;;;;;;;5062726;28;20329;-68
2022/04/27 14:28:06;;;;;;;3.55;2.33;;;;;;;;;;5075992;28;20636;-68
2022/04/27 14:30:32;;;;;;;4.80;2.90;;;;;;;;;;5062766;28;20180;-70
2022/04/27 14:32:58;;;;;;;3.63;2.72;;;;;;;;;;5062750;28;20763;-66
2022/04/27 14:35:23;;;;;;;4.43;2.58;;;;;;;;;;5064301;28;20177;-67
2022/04/27 14:37:49;;;;;;;6.55;3.00;;;;;;;;;;5065682;28;20173;-66
2022/04/27 14:40:15;;;;;;;5.63;2.65;;;;;;;;;;5061744;28;20222;-65
2022/04/27 14:42:41;;;;;;;7.97;2.85;;;;;;;;;;5063607;28;20185;-66
2022/04/27 14:45:08;;;;;;;7.75;2.67;;;;;;;;;;5066089;28;20184;-67
2022/04/27 14:47:33;;;;;;;5.28;2.38;;;;;;;;;;5066541;28;20190;-66
2022/04/27 14:49:59;;;;;;;7.43;2.55;;;;;;;;;;5064915;28;20610;-67
2022/04/27 14:52:25;;;;;;;6.18;2.40;;;;;;;;;;5066744;28;20192;-67
2022/04/27 14:54:50;;;;;;;5.28;3.00;;;;;;;;;;5066880;28;20180;-66
2022/04/27 14:57:15;;;;;;;6.07;3.00;;;;;;;;;;5068611;28;20183;-67